sensor_id;sensor_type;location;lat;lon;timestamp;temperature;humidity
20598;DHT22;10457;48.770;11.446;2023-04-01T00:00:32;8.80;78.90
20598;DHT22;10457;48.770;11.446;2023-04-01T00:05:53;8.90;78.50
20598;DHT22;10457;48.770;11.446;2023-04-01T00:11:17;8.90;78.90
20598;DHT22;10457;48.770;11.446;2023-04-01T00:16:38;8.90;78.40
20598;DHT22;10457;48.770;11.446;2023-04-01T00:22:00;8.80;78.80
20598;DHT22;10457;48.770;11.446;2023-04-01T00:27:23;8.70;79.20
20598;DHT22;10457;48.770;11.446;2023-04-01T00:32:44;8.60;79.70
20598;DHT22;10457;48.770;11.446;2023-04-01T00:38:06;8.70;79.40
20598;DHT22;10457;48.770;11.446;2023-04-01T00:43:29;8.70;79.20
20598;DHT22;10457;48.770;11.446;2023-04-01T00:48:54;8.70;79.30
20598;DHT22;10457;48.770;11.446;2023-04-01T00:54:17;8.70;79.70
20598;DHT22;10457;48.770;11.446;2023-04-01T00:59:44;8.60;80.40
20598;DHT22;10457;48.770;11.446;2023-04-01T01:05:07;8.60;81.20
20598;DHT22;10457;48.770;11.446;2023-04-01T01:10:31;8.60;81.70
20598;DHT22;10457;48.770;11.446;2023-04-01T01:15:58;8.50;82.90
20598;DHT22;10457;48.770;11.446;2023-04-01T01:21:54;8.40;83.70
20598;DHT22;10457;48.770;11.446;2023-04-01T01:27:22;8.40;85.10
20598;DHT22;10457;48.770;11.446;2023-04-01T01:38:59;8.30;86.10
20598;DHT22;10457;48.770;11.446;2023-04-01T01:44:21;8.30;86.60
20598;DHT22;10457;48.770;11.446;2023-04-01T01:49:43;8.20;86.80
20598;DHT22;10457;48.770;11.446;2023-04-01T01:55:27;8.20;86.70
20598;DHT22;10457;48.770;11.446;2023-04-01T02:00:53;8.20;86.90
20598;DHT22;10457;48.770;11.446;2023-04-01T02:06:18;8.00;87.70
20598;DHT22;10457;48.770;11.446;2023-04-01T02:11:47;8.10;86.70
20598;DHT22;10457;48.770;11.446;2023-04-01T02:17:13;8.10;86.60
20598;DHT22;10457;48.770;11.446;2023-04-01T02:22:38;8.10;86.20
20598;DHT22;10457;48.770;11.446;2023-04-01T02:28:05;8.10;86.10
20598;DHT22;10457;48.770;11.446;2023-04-01T02:33:28;8.10;85.20
20598;DHT22;10457;48.770;11.446;2023-04-01T02:38:51;8.10;85.10
20598;DHT22;10457;48.770;11.446;2023-04-01T02:44:15;8.10;85.20
20598;DHT22;10457;48.770;11.446;2023-04-01T02:49:37;8.10;85.70
20598;DHT22;10457;48.770;11.446;2023-04-01T02:54:59;8.10;85.60
20598;DHT22;10457;48.770;11.446;2023-04-01T03:00:22;8.10;85.70
20598;DHT22;10457;48.770;11.446;2023-04-01T03:05:44;8.10;86.80
20598;DHT22;10457;48.770;11.446;2023-04-01T03:11:05;8.10;88.30
20598;DHT22;10457;48.770;11.446;2023-04-01T03:16:30;8.00;90.10
20598;DHT22;10457;48.770;11.446;2023-04-01T03:21:51;7.90;92.90
20598;DHT22;10457;48.770;11.446;2023-04-01T03:27:13;7.80;93.30
20598;DHT22;10457;48.770;11.446;2023-04-01T03:32:36;7.80;91.30
20598;DHT22;10457;48.770;11.446;2023-04-01T03:37:57;7.90;90.70
20598;DHT22;10457;48.770;11.446;2023-04-01T03:43:19;7.90;89.00
20598;DHT22;10457;48.770;11.446;2023-04-01T03:48:42;8.00;88.10
20598;DHT22;10457;48.770;11.446;2023-04-01T03:54:03;8.10;87.50
20598;DHT22;10457;48.770;11.446;2023-04-01T03:59:25;8.10;88.10
20598;DHT22;10457;48.770;11.446;2023-04-01T04:04:47;8.20;86.20
20598;DHT22;10457;48.770;11.446;2023-04-01T04:10:09;8.10;88.50
20598;DHT22;10457;48.770;11.446;2023-04-01T04:15:32;8.00;89.40
20598;DHT22;10457;48.770;11.446;2023-04-01T04:20:55;7.90;90.20
20598;DHT22;10457;48.770;11.446;2023-04-01T04:26:16;7.80;89.20
20598;DHT22;10457;48.770;11.446;2023-04-01T04:31:44;7.80;89.50
20598;DHT22;10457;48.770;11.446;2023-04-01T04:37:07;7.80;88.30
20598;DHT22;10457;48.770;11.446;2023-04-01T04:42:30;7.90;87.70
20598;DHT22;10457;48.770;11.446;2023-04-01T04:47:57;7.80;86.40
20598;DHT22;10457;48.770;11.446;2023-04-01T04:53:20;7.70;85.70
20598;DHT22;10457;48.770;11.446;2023-04-01T04:58:42;7.70;86.00
20598;DHT22;10457;48.770;11.446;2023-04-01T05:04:08;7.70;86.30
20598;DHT22;10457;48.770;11.446;2023-04-01T05:09:31;7.70;85.60
20598;DHT22;10457;48.770;11.446;2023-04-01T05:14:54;7.70;86.00
20598;DHT22;10457;48.770;11.446;2023-04-01T05:20:16;7.80;84.60
20598;DHT22;10457;48.770;11.446;2023-04-01T05:25:39;7.80;84.40
20598;DHT22;10457;48.770;11.446;2023-04-01T05:31:04;7.80;84.20
20598;DHT22;10457;48.770;11.446;2023-04-01T05:36:32;7.90;84.10
20598;DHT22;10457;48.770;11.446;2023-04-01T05:41:55;7.90;83.50
20598;DHT22;10457;48.770;11.446;2023-04-01T05:47:16;7.90;83.70
20598;DHT22;10457;48.770;11.446;2023-04-01T05:52:38;7.90;83.30
20598;DHT22;10457;48.770;11.446;2023-04-01T05:58:01;7.90;83.60
20598;DHT22;10457;48.770;11.446;2023-04-01T06:03:24;8.30;81.50
20598;DHT22;10457;48.770;11.446;2023-04-01T06:08:45;8.30;81.80
20598;DHT22;10457;48.770;11.446;2023-04-01T06:14:20;8.30;82.60
20598;DHT22;10457;48.770;11.446;2023-04-01T06:19:55;8.30;83.00
20598;DHT22;10457;48.770;11.446;2023-04-01T06:25:47;8.40;83.40
20598;DHT22;10457;48.770;11.446;2023-04-01T06:31:34;8.40;82.80
20598;DHT22;10457;48.770;11.446;2023-04-01T06:37:18;8.50;82.90
20598;DHT22;10457;48.770;11.446;2023-04-01T06:42:50;8.60;82.00
20598;DHT22;10457;48.770;11.446;2023-04-01T06:48:48;8.70;81.60
20598;DHT22;10457;48.770;11.446;2023-04-01T06:54:40;8.80;81.70
20598;DHT22;10457;48.770;11.446;2023-04-01T07:00:29;8.90;80.20
20598;DHT22;10457;48.770;11.446;2023-04-01T07:05:54;9.00;80.10
20598;DHT22;10457;48.770;11.446;2023-04-01T07:11:24;9.00;80.10
20598;DHT22;10457;48.770;11.446;2023-04-01T07:17:16;9.80;77.00
20598;DHT22;10457;48.770;11.446;2023-04-01T07:22:42;9.70;74.50
20598;DHT22;10457;48.770;11.446;2023-04-01T07:28:16;9.90;74.80
20598;DHT22;10457;48.770;11.446;2023-04-01T07:33:48;10.80;70.00
20598;DHT22;10457;48.770;11.446;2023-04-01T07:39:30;10.90;68.10
20598;DHT22;10457;48.770;11.446;2023-04-01T07:45:11;10.60;69.30
20598;DHT22;10457;48.770;11.446;2023-04-01T07:50:44;10.80;68.00
20598;DHT22;10457;48.770;11.446;2023-04-01T07:56:11;11.60;64.90
20598;DHT22;10457;48.770;11.446;2023-04-01T08:01:42;13.10;57.70
20598;DHT22;10457;48.770;11.446;2023-04-01T08:07:09;14.10;56.80
20598;DHT22;10457;48.770;11.446;2023-04-01T08:12:50;13.40;55.80
20598;DHT22;10457;48.770;11.446;2023-04-01T08:18:41;12.50;59.30
20598;DHT22;10457;48.770;11.446;2023-04-01T08:24:14;12.20;59.70
20598;DHT22;10457;48.770;11.446;2023-04-01T08:29:44;11.50;62.10
20598;DHT22;10457;48.770;11.446;2023-04-01T08:35:16;11.30;62.90
20598;DHT22;10457;48.770;11.446;2023-04-01T08:47:42;11.00;64.20
20598;DHT22;10457;48.770;11.446;2023-04-01T08:53:14;11.10;63.50
20598;DHT22;10457;48.770;11.446;2023-04-01T08:58:59;11.40;63.60
20598;DHT22;10457;48.770;11.446;2023-04-01T09:05:03;11.30;63.50
20598;DHT22;10457;48.770;11.446;2023-04-01T09:10:49;10.90;63.60
20598;DHT22;10457;48.770;11.446;2023-04-01T09:17:06;10.70;63.70
20598;DHT22;10457;48.770;11.446;2023-04-01T09:22:51;11.10;64.50
20598;DHT22;10457;48.770;11.446;2023-04-01T09:28:28;11.20;63.50
20598;DHT22;10457;48.770;11.446;2023-04-01T09:34:08;11.20;62.70
20598;DHT22;10457;48.770;11.446;2023-04-01T09:40:09;11.30;63.70
20598;DHT22;10457;48.770;11.446;2023-04-01T09:45:48;11.00;64.10
20598;DHT22;10457;48.770;11.446;2023-04-01T09:51:29;11.10;64.90
20598;DHT22;10457;48.770;11.446;2023-04-01T09:57:27;11.50;63.50
20598;DHT22;10457;48.770;11.446;2023-04-01T10:03:53;11.60;63.30
20598;DHT22;10457;48.770;11.446;2023-04-01T10:22:04;11.20;64.00
20598;DHT22;10457;48.770;11.446;2023-04-01T10:40:24;11.20;67.10
20598;DHT22;10457;48.770;11.446;2023-04-01T10:47:04;11.30;67.90
20598;DHT22;10457;48.770;11.446;2023-04-01T10:59:33;11.20;72.10
20598;DHT22;10457;48.770;11.446;2023-04-01T11:05:51;10.80;77.10
20598;DHT22;10457;48.770;11.446;2023-04-01T11:12:03;10.40;78.70
20598;DHT22;10457;48.770;11.446;2023-04-01T11:18:04;9.70;84.50
20598;DHT22;10457;48.770;11.446;2023-04-01T11:30:23;9.30;88.80
20598;DHT22;10457;48.770;11.446;2023-04-01T11:36:11;9.20;93.50
20598;DHT22;10457;48.770;11.446;2023-04-01T11:41:46;9.30;96.80
20598;DHT22;10457;48.770;11.446;2023-04-01T11:48:09;9.20;95.20
20598;DHT22;10457;48.770;11.446;2023-04-01T11:53:47;9.00;98.10
20598;DHT22;10457;48.770;11.446;2023-04-01T12:05:36;9.10;99.90
20598;DHT22;10457;48.770;11.446;2023-04-01T12:11:06;9.00;99.90
20598;DHT22;10457;48.770;11.446;2023-04-01T12:16:55;9.10;99.90
20598;DHT22;10457;48.770;11.446;2023-04-01T12:22:35;9.00;99.90
20598;DHT22;10457;48.770;11.446;2023-04-01T12:28:10;9.10;99.90
20598;DHT22;10457;48.770;11.446;2023-04-01T12:34:05;9.20;99.90
20598;DHT22;10457;48.770;11.446;2023-04-01T12:40:02;9.00;99.90
20598;DHT22;10457;48.770;11.446;2023-04-01T12:46:13;9.20;99.90
20598;DHT22;10457;48.770;11.446;2023-04-01T12:51:52;9.20;99.90
20598;DHT22;10457;48.770;11.446;2023-04-01T12:57:31;9.30;99.70
20598;DHT22;10457;48.770;11.446;2023-04-01T13:03:19;9.70;97.50
20598;DHT22;10457;48.770;11.446;2023-04-01T13:08:56;9.80;96.20
20598;DHT22;10457;48.770;11.446;2023-04-01T13:14:56;9.70;95.10
20598;DHT22;10457;48.770;11.446;2023-04-01T13:20:36;9.70;94.80
20598;DHT22;10457;48.770;11.446;2023-04-01T13:26:13;9.80;94.30
20598;DHT22;10457;48.770;11.446;2023-04-01T13:32:00;9.90;91.40
20598;DHT22;10457;48.770;11.446;2023-04-01T13:37:42;9.80;84.90
20598;DHT22;10457;48.770;11.446;2023-04-01T13:43:18;10.10;84.00
20598;DHT22;10457;48.770;11.446;2023-04-01T13:48:58;10.30;83.20
20598;DHT22;10457;48.770;11.446;2023-04-01T13:54:42;10.10;87.20
20598;DHT22;10457;48.770;11.446;2023-04-01T14:00:38;10.00;89.40
20598;DHT22;10457;48.770;11.446;2023-04-01T14:06:14;10.10;90.00
20598;DHT22;10457;48.770;11.446;2023-04-01T14:11:48;10.10;90.00
20598;DHT22;10457;48.770;11.446;2023-04-01T14:23:32;10.10;87.50
20598;DHT22;10457;48.770;11.446;2023-04-01T14:29:12;10.10;84.50
20598;DHT22;10457;48.770;11.446;2023-04-01T14:34:53;10.40;82.60
20598;DHT22;10457;48.770;11.446;2023-04-01T14:40:27;10.40;81.70
20598;DHT22;10457;48.770;11.446;2023-04-01T14:46:08;10.50;82.70
20598;DHT22;10457;48.770;11.446;2023-04-01T14:51:49;10.60;80.40
20598;DHT22;10457;48.770;11.446;2023-04-01T14:57:13;10.70;79.30
20598;DHT22;10457;48.770;11.446;2023-04-01T15:02:45;10.70;78.40
20598;DHT22;10457;48.770;11.446;2023-04-01T15:08:18;10.60;77.60
20598;DHT22;10457;48.770;11.446;2023-04-01T15:13:57;10.60;77.50
20598;DHT22;10457;48.770;11.446;2023-04-01T15:19:54;10.60;79.20
20598;DHT22;10457;48.770;11.446;2023-04-01T15:25:39;10.40;78.40
20598;DHT22;10457;48.770;11.446;2023-04-01T15:31:13;10.40;79.80
20598;DHT22;10457;48.770;11.446;2023-04-01T15:36:42;10.40;78.90
20598;DHT22;10457;48.770;11.446;2023-04-01T15:42:19;10.50;78.80
20598;DHT22;10457;48.770;11.446;2023-04-01T15:47:58;10.50;78.50
20598;DHT22;10457;48.770;11.446;2023-04-01T16:00:06;10.40;79.80
20598;DHT22;10457;48.770;11.446;2023-04-01T16:05:41;10.30;81.50
20598;DHT22;10457;48.770;11.446;2023-04-01T16:11:17;10.30;83.10
20598;DHT22;10457;48.770;11.446;2023-04-01T16:16:53;10.20;84.10
20598;DHT22;10457;48.770;11.446;2023-04-01T16:22:31;10.20;84.40
20598;DHT22;10457;48.770;11.446;2023-04-01T16:28:12;10.10;85.60
20598;DHT22;10457;48.770;11.446;2023-04-01T16:33:44;10.10;84.70
20598;DHT22;10457;48.770;11.446;2023-04-01T16:39:26;10.10;83.90
20598;DHT22;10457;48.770;11.446;2023-04-01T16:44:58;10.20;83.60
20598;DHT22;10457;48.770;11.446;2023-04-01T16:50:22;10.10;83.00
20598;DHT22;10457;48.770;11.446;2023-04-01T16:55:49;10.00;84.00
20598;DHT22;10457;48.770;11.446;2023-04-01T17:01:18;10.00;83.90
20598;DHT22;10457;48.770;11.446;2023-04-01T17:06:47;10.00;83.70
20598;DHT22;10457;48.770;11.446;2023-04-01T17:12:17;9.90;85.00
20598;DHT22;10457;48.770;11.446;2023-04-01T17:17:49;9.80;87.80
20598;DHT22;10457;48.770;11.446;2023-04-01T17:23:21;9.60;90.40
20598;DHT22;10457;48.770;11.446;2023-04-01T17:28:49;9.50;91.20
20598;DHT22;10457;48.770;11.446;2023-04-01T17:34:33;9.50;92.10
20598;DHT22;10457;48.770;11.446;2023-04-01T17:40:22;9.40;93.30
20598;DHT22;10457;48.770;11.446;2023-04-01T17:45:53;9.30;93.60
20598;DHT22;10457;48.770;11.446;2023-04-01T17:51:23;9.30;94.10
20598;DHT22;10457;48.770;11.446;2023-04-01T17:56:59;9.30;97.20
20598;DHT22;10457;48.770;11.446;2023-04-01T18:02:39;9.20;98.70
20598;DHT22;10457;48.770;11.446;2023-04-01T18:08:16;9.30;97.80
20598;DHT22;10457;48.770;11.446;2023-04-01T18:19:45;9.20;92.00
20598;DHT22;10457;48.770;11.446;2023-04-01T18:25:22;9.40;88.60
20598;DHT22;10457;48.770;11.446;2023-04-01T18:30:52;9.40;87.90
20598;DHT22;10457;48.770;11.446;2023-04-01T18:36:21;9.40;87.70
20598;DHT22;10457;48.770;11.446;2023-04-01T18:41:55;9.30;87.30
20598;DHT22;10457;48.770;11.446;2023-04-01T18:47:27;9.30;88.90
20598;DHT22;10457;48.770;11.446;2023-04-01T18:52:58;9.30;88.60
20598;DHT22;10457;48.770;11.446;2023-04-01T18:58:27;9.30;88.40
20598;DHT22;10457;48.770;11.446;2023-04-01T19:04:03;9.30;88.20
20598;DHT22;10457;48.770;11.446;2023-04-01T19:09:32;9.40;87.80
20598;DHT22;10457;48.770;11.446;2023-04-01T19:15:08;9.30;89.20
20598;DHT22;10457;48.770;11.446;2023-04-01T19:20:40;9.20;90.40
20598;DHT22;10457;48.770;11.446;2023-04-01T19:26:05;9.20;90.90
20598;DHT22;10457;48.770;11.446;2023-04-01T19:31:41;9.20;91.10
20598;DHT22;10457;48.770;11.446;2023-04-01T19:37:18;9.20;90.30
20598;DHT22;10457;48.770;11.446;2023-04-01T19:42:57;9.20;90.10
20598;DHT22;10457;48.770;11.446;2023-04-01T19:48:38;9.20;90.90
20598;DHT22;10457;48.770;11.446;2023-04-01T19:54:16;9.20;92.00
20598;DHT22;10457;48.770;11.446;2023-04-01T19:59:49;9.20;92.90
20598;DHT22;10457;48.770;11.446;2023-04-01T20:05:38;9.20;93.00
20598;DHT22;10457;48.770;11.446;2023-04-01T20:11:15;9.20;92.80
20598;DHT22;10457;48.770;11.446;2023-04-01T20:16:58;9.10;93.20
20598;DHT22;10457;48.770;11.446;2023-04-01T20:22:31;9.20;92.70
20598;DHT22;10457;48.770;11.446;2023-04-01T20:28:01;9.20;92.50
20598;DHT22;10457;48.770;11.446;2023-04-01T20:33:57;9.30;91.90
20598;DHT22;10457;48.770;11.446;2023-04-01T20:39:48;9.30;91.70
20598;DHT22;10457;48.770;11.446;2023-04-01T20:45:28;9.20;90.90
20598;DHT22;10457;48.770;11.446;2023-04-01T20:50:57;9.20;91.70
20598;DHT22;10457;48.770;11.446;2023-04-01T20:56:31;9.30;91.20
20598;DHT22;10457;48.770;11.446;2023-04-01T21:02:07;9.20;92.10
20598;DHT22;10457;48.770;11.446;2023-04-01T21:07:35;9.20;90.90
20598;DHT22;10457;48.770;11.446;2023-04-01T21:13:10;9.20;91.50
20598;DHT22;10457;48.770;11.446;2023-04-01T21:18:48;9.20;90.60
20598;DHT22;10457;48.770;11.446;2023-04-01T21:24:36;9.20;89.70
20598;DHT22;10457;48.770;11.446;2023-04-01T21:30:28;9.10;89.50
20598;DHT22;10457;48.770;11.446;2023-04-01T21:36:00;9.00;90.70
20598;DHT22;10457;48.770;11.446;2023-04-01T21:41:42;9.10;90.10
20598;DHT22;10457;48.770;11.446;2023-04-01T21:47:45;9.10;89.10
20598;DHT22;10457;48.770;11.446;2023-04-01T22:00:11;8.90;88.70
20598;DHT22;10457;48.770;11.446;2023-04-01T22:05:40;8.80;89.40
20598;DHT22;10457;48.770;11.446;2023-04-01T22:11:11;8.70;89.50
20598;DHT22;10457;48.770;11.446;2023-04-01T22:16:44;8.60;89.00
20598;DHT22;10457;48.770;11.446;2023-04-01T22:22:18;8.40;89.80
20598;DHT22;10457;48.770;11.446;2023-04-01T22:27:46;8.50;89.30
20598;DHT22;10457;48.770;11.446;2023-04-01T22:33:16;8.40;89.30
20598;DHT22;10457;48.770;11.446;2023-04-01T22:38:52;8.40;89.50
20598;DHT22;10457;48.770;11.446;2023-04-01T22:44:32;8.40;89.50
20598;DHT22;10457;48.770;11.446;2023-04-01T22:50:07;8.50;88.70
20598;DHT22;10457;48.770;11.446;2023-04-01T22:55:36;8.60;88.60
20598;DHT22;10457;48.770;11.446;2023-04-01T23:01:03;8.50;88.90
20598;DHT22;10457;48.770;11.446;2023-04-01T23:06:29;8.40;89.50
20598;DHT22;10457;48.770;11.446;2023-04-01T23:11:56;8.50;91.00
20598;DHT22;10457;48.770;11.446;2023-04-01T23:17:29;8.50;91.70
20598;DHT22;10457;48.770;11.446;2023-04-01T23:23:10;8.30;94.50
20598;DHT22;10457;48.770;11.446;2023-04-01T23:28:47;8.40;94.10
20598;DHT22;10457;48.770;11.446;2023-04-01T23:34:30;8.40;95.90
20598;DHT22;10457;48.770;11.446;2023-04-01T23:39:53;8.40;93.70
20598;DHT22;10457;48.770;11.446;2023-04-01T23:45:18;8.30;95.00
20598;DHT22;10457;48.770;11.446;2023-04-01T23:50:40;8.40;94.50
20598;DHT22;10457;48.770;11.446;2023-04-01T23:56:02;8.30;93.10
